Time;durP1;ratioP1;P1;durP2;ratioP2;P2;SDS_P1;SDS_P2;PMS_P1;PMS_P2;Temp;Humidity;BMP_temperature;BMP_pressure;BME280_temperature;BME280_humidity;BME280_pressure;Samples;Min_cycle;Max_cycle;Signal;HPM_P1;HPM_P2
2022/06/05 00:01:54;;;;;;;21.25;18.15;;;;;;;17.65;81.23;98957.92;1768164;81;25416;-57
2022/06/05 00:04:58;;;;;;;22.07;18.00;;;;;;;17.67;81.13;98963.92;1765015;81;25570;-56
2022/06/05 00:07:45;;;;;;;22.52;17.87;;;;;;;17.68;81.15;98962.75;1767712;81;25720;-58
2022/06/05 00:10:44;;;;;;;21.45;18.00;;;;;;;17.73;81.12;98971.39;1768318;81;25464;-58
2022/06/05 00:13:21;;;;;;;22.27;17.73;;;;;;;17.79;80.97;98966.42;1708183;83;27409;-58
2022/06/05 00:15:48;;;;;;;25.52;18.75;;;;;;;17.83;80.87;98965.11;1707799;84;25815;-57
2022/06/05 00:18:15;;;;;;;26.23;19.73;;;;;;;17.79;80.92;98956.12;1708270;84;25625;-57
2022/06/05 00:20:43;;;;;;;23.75;18.73;;;;;;;17.75;81.03;98948.86;1708576;83;25696;-57
2022/06/05 00:23:10;;;;;;;23.80;18.92;;;;;;;17.75;81.19;98952.45;1715634;83;25718;-57
2022/06/05 00:25:54;;;;;;;24.40;18.67;;;;;;;17.77;81.06;98954.88;1715737;83;27568;-57
2022/06/05 00:28:55;;;;;;;25.00;18.57;;;;;;;17.74;81.10;98950.85;1715631;83;25755;-57
2022/06/05 00:31:39;;;;;;;22.15;18.45;;;;;;;17.76;81.22;98961.58;1711170;83;25744;-58
2022/06/05 00:34:05;;;;;;;23.77;18.27;;;;;;;17.76;81.22;98961.58;1715237;83;25740;-60
2022/06/05 00:37:15;;;;;;;24.00;18.40;;;;;;;17.76;81.13;98964.36;1715608;83;25818;-60
2022/06/05 00:40:03;;;;;;;24.47;19.60;;;;;;;17.76;81.05;98960.98;1715626;83;27684;-58
2022/06/05 00:42:33;;;;;;;24.72;19.05;;;;;;;17.72;81.23;98956.50;1715203;83;25804;-58
2022/06/05 00:45:04;;;;;;;24.82;19.70;;;;;;;17.65;81.37;98950.99;1715759;83;25728;-58
2022/06/05 00:47:33;;;;;;;22.82;18.62;;;;;;;17.56;81.51;98951.76;1715228;83;25852;-59
2022/06/05 00:50:19;;;;;;;24.05;19.12;;;;;;;17.52;81.60;98948.06;1765749;80;25616;-58
2022/06/05 00:52:47;;;;;;;22.77;18.80;;;;;;;17.48;81.76;98954.09;1774830;80;26905;-61
2022/06/05 00:55:14;;;;;;;22.80;18.87;;;;;;;17.43;81.85;98958.73;1775802;80;25966;-58
2022/06/05 00:57:42;;;;;;;23.85;19.40;;;;;;;17.40;81.83;98966.94;1775431;80;25416;-58
2022/06/05 01:00:22;;;;;;;23.07;18.77;;;;;;;17.43;81.72;98963.45;1775830;80;25768;-58
2022/06/05 01:02:53;;;;;;;23.65;18.80;;;;;;;17.41;81.68;98965.77;1775965;80;25447;-59
2022/06/05 01:05:22;;;;;;;22.30;18.37;;;;;;;17.45;81.60;98967.27;1775832;80;28295;-58
2022/06/05 01:07:49;;;;;;;23.30;18.98;;;;;;;17.48;81.29;98952.70;1775665;80;25420;-58
2022/06/05 01:10:18;;;;;;;22.85;18.32;;;;;;;17.47;81.25;98945.56;1775760;80;25684;-59
2022/06/05 01:13:20;;;;;;;24.30;18.98;;;;;;;17.46;81.30;98949.47;1775727;80;25679;-57
2022/06/05 01:16:10;;;;;;;23.80;18.30;;;;;;;17.43;81.44;98944.89;1775504;80;25620;-58
2022/06/05 01:19:00;;;;;;;23.18;18.17;;;;;;;17.40;81.30;98951.13;1775516;80;27480;-58
2022/06/05 01:21:57;;;;;;;;;;;;;;;17.40;80.90;98958.05;1775110;80;27079;-57
2022/06/05 01:24:53;;;;;;;23.60;19.42;;;;;;;17.36;81.21;98955.74;1765753;81;25747;-57
2022/06/05 01:27:24;;;;;;;26.12;18.60;;;;;;;17.32;80.65;98945.75;1764815;81;25815;-57
2022/06/05 01:30:19;;;;;;;24.95;19.80;;;;;;;17.18;80.63;98953.84;1765224;81;25427;-57
2022/06/05 01:32:57;;;;;;;25.90;19.60;;;;;;;16.98;80.93;98959.78;1765170;81;28328;-58
2022/06/05 01:35:31;;;;;;;25.02;20.12;;;;;;;16.91;81.23;98962.56;1764530;80;25554;-57
2022/06/05 01:38:09;;;;;;;27.87;20.90;;;;;;;16.85;81.26;98956.22;1764531;80;25605;-57
2022/06/05 01:40:46;;;;;;;26.07;20.88;;;;;;;16.76;81.51;98953.59;1764301;80;25582;-57
2022/06/05 01:43:26;;;;;;;24.63;20.25;;;;;;;16.65;81.80;98950.48;1765119;81;25376;-57
2022/06/05 01:46:00;;;;;;;28.13;21.40;;;;;;;16.61;82.06;98948.98;1765114;81;27648;-57
2022/06/05 01:48:38;;;;;;;27.37;21.07;;;;;;;16.58;82.72;98943.35;1765046;80;25824;-57
2022/06/05 01:51:09;;;;;;;26.42;20.88;;;;;;;16.53;83.30;98935.50;1764395;80;25474;-57
2022/06/05 01:53:43;;;;;;;27.98;21.95;;;;;;;16.53;83.45;98941.03;1765383;81;25735;-58
2022/06/05 01:56:21;;;;;;;27.58;20.80;;;;;;;16.57;83.62;98950.84;1765443;81;25427;-57
2022/06/05 01:58:52;;;;;;;29.00;21.75;;;;;;;16.58;83.81;98939.99;1761649;81;27514;-57
2022/06/05 02:01:23;;;;;;;27.52;20.62;;;;;;;16.60;84.05;98935.49;1747903;81;25699;-57
2022/06/05 02:04:01;;;;;;;26.52;20.55;;;;;;;16.60;84.02;98938.26;1765401;81;25681;-58
2022/06/05 02:06:41;;;;;;;27.22;20.85;;;;;;;16.62;83.69;98940.11;1765663;81;25926;-58
2022/06/05 02:09:19;;;;;;;25.60;19.80;;;;;;;16.67;83.58;98936.52;1765109;81;25560;-59
2022/06/05 02:11:46;;;;;;;22.73;19.52;;;;;;;16.72;83.37;98945.77;1765517;81;28278;-58
2022/06/05 02:14:20;;;;;;;27.58;21.02;;;;;;;16.67;82.88;98947.59;1765144;81;25463;-58
2022/06/05 02:16:52;;;;;;;24.82;19.55;;;;;;;16.72;83.24;98954.06;1765235;81;25509;-59
2022/06/05 02:19:33;;;;;;;25.90;19.62;;;;;;;16.70;82.39;98954.41;1765252;81;25672;-58
2022/06/05 02:22:05;;;;;;;24.63;20.00;;;;;;;16.59;82.39;98947.16;1765351;80;25387;-58
2022/06/05 02:24:32;;;;;;;25.43;20.23;;;;;;;16.54;82.39;98947.38;1764691;80;28180;-59
2022/06/05 02:27:01;;;;;;;27.17;20.57;;;;;;;16.47;82.52;98951.31;1765202;81;25419;-59
2022/06/05 02:29:28;;;;;;;26.43;21.20;;;;;;;16.47;82.52;98956.27;1765606;81;25576;-62
2022/06/05 02:32:09;;;;;;;28.32;20.27;;;;;;;16.48;82.43;98954.30;1764927;81;25742;-60
2022/06/05 02:34:56;;;;;;;;;;;;;;;16.42;82.04;98950.97;1767237;81;25683;-61
2022/06/05 02:37:50;;;;;;;27.15;20.72;;;;;;;16.23;81.81;98962.02;1716547;80;27633;-59
2022/06/05 02:40:45;;;;;;;26.15;20.15;;;;;;;16.14;82.38;98959.92;1765377;81;25415;-59
2022/06/05 02:47:06;;;;;;;25.90;19.30;;;;;;;16.03;82.83;98963.71;1671226;85;25455;-60
2022/06/05 02:49:39;;;;;;;24.10;19.50;;;;;;;16.04;82.67;98958.44;1671186;85;25768;-57
2022/06/05 02:52:12;;;;;;;25.95;20.30;;;;;;;16.08;82.81;98959.92;1671276;85;27412;-58
2022/06/05 02:54:53;;;;;;;27.25;20.65;;;;;;;16.11;82.64;98958.67;1671003;85;25694;-58
2022/06/05 02:57:18;;;;;;;25.70;20.12;;;;;;;16.12;82.19;98962.25;1670519;85;25807;-57
2022/06/05 02:59:43;;;;;;;29.67;20.48;;;;;;;16.09;82.65;98961.55;1671203;85;25914;-58
2022/06/05 03:04:54;;;;;;;36.90;21.45;;;;;;;16.14;82.77;98965.45;1671338;85;25659;-57
2022/06/05 03:07:20;;;;;;;26.90;20.23;;;;;;;16.13;83.07;98967.44;1671367;85;25731;-57
2022/06/05 03:09:45;;;;;;;27.90;20.92;;;;;;;16.12;82.85;98967.78;1671368;85;25544;-58
2022/06/05 03:12:11;;;;;;;24.50;19.15;;;;;;;16.08;82.76;98973.17;1671491;85;25758;-58
2022/06/05 03:14:37;;;;;;;27.55;19.95;;;;;;;16.09;83.05;98967.87;1671367;85;25648;-58
2022/06/05 03:17:04;;;;;;;26.15;19.25;;;;;;;16.11;82.70;98970.29;1671573;85;27419;-58
2022/06/05 03:19:29;;;;;;;25.37;19.52;;;;;;;16.05;82.70;98970.53;1688917;81;26009;-58
2022/06/05 03:21:55;;;;;;;24.40;19.35;;;;;;;16.08;82.95;98967.65;1764832;81;25467;-58
2022/06/05 03:24:22;;;;;;;26.27;19.82;;;;;;;16.06;83.09;98978.23;1765211;81;25750;-58
2022/06/05 03:26:48;;;;;;;25.65;19.67;;;;;;;16.08;83.31;98981.47;1765032;81;25616;-58
2022/06/05 03:29:14;;;;;;;24.95;19.20;;;;;;;16.15;83.32;98976.17;1764879;81;27451;-58
2022/06/05 03:31:40;;;;;;;24.43;19.35;;;;;;;16.18;83.09;98971.94;1764969;81;25650;-59
2022/06/05 03:34:08;;;;;;;23.45;18.67;;;;;;;16.15;83.19;98973.41;1765290;81;25506;-58
2022/06/05 03:36:34;;;;;;;23.47;18.90;;;;;;;16.08;82.69;98977.89;1765120;81;25884;-58
2022/06/05 03:39:00;;;;;;;25.77;19.62;;;;;;;15.96;83.51;98980.03;1765251;81;25407;-58
2022/06/05 03:41:26;;;;;;;23.98;18.20;;;;;;;16.02;83.91;98980.08;1765475;81;27544;-60
2022/06/05 03:43:52;;;;;;;21.75;17.80;;;;;;;16.06;83.48;98986.52;1765360;81;25563;-60
2022/06/05 03:46:18;;;;;;;22.85;18.85;;;;;;;16.05;83.97;98976.06;1765274;81;25435;-58
2022/06/05 03:48:45;;;;;;;22.58;18.73;;;;;;;16.21;84.07;98979.55;1765214;81;26587;-60
2022/06/05 03:51:16;;;;;;;22.93;18.45;;;;;;;16.24;83.28;98975.27;1765213;81;25612;-59
2022/06/05 03:53:43;;;;;;;22.95;19.45;;;;;;;16.34;83.82;98970.66;1763991;80;27450;-58
2022/06/05 03:56:13;;;;;;;25.02;19.50;;;;;;;16.41;83.46;98977.02;1765217;81;25652;-59
2022/06/05 03:58:39;;;;;;;23.98;19.02;;;;;;;16.46;83.04;98975.39;1765274;81;25617;-59
2022/06/05 04:01:11;;;;;;;23.77;18.77;;;;;;;16.48;83.08;98979.19;1764847;81;25696;-59
2022/06/05 04:03:39;;;;;;;22.05;17.62;;;;;;;16.53;83.46;98978.97;1765206;81;25463;-59
2022/06/05 04:06:08;;;;;;;22.77;18.62;;;;;;;16.54;82.80;98986.92;1764747;81;29551;-60
2022/06/05 04:08:36;;;;;;;21.77;18.23;;;;;;;16.59;82.97;98990.60;1765254;81;25728;-60
2022/06/05 04:11:08;;;;;;;21.50;17.98;;;;;;;16.74;82.91;98988.53;1765342;81;25542;-60
2022/06/05 04:13:35;;;;;;;20.65;17.07;;;;;;;16.81;82.41;98994.28;1764835;80;27504;-58
2022/06/05 04:16:02;;;;;;;22.17;17.52;;;;;;;16.92;82.54;98993.80;1765346;81;25746;-58
2022/06/05 04:18:28;;;;;;;18.70;15.63;;;;;;;17.03;81.90;99002.44;1764997;81;27585;-59
2022/06/05 04:20:54;;;;;;;19.75;16.70;;;;;;;17.11;81.61;98998.77;1765182;81;25428;-58
2022/06/05 04:23:20;;;;;;;20.00;17.42;;;;;;;17.16;81.81;99003.26;1761913;80;25614;-59
2022/06/05 04:25:46;;;;;;;18.40;16.15;;;;;;;17.26;81.62;99013.84;1760213;81;25634;-58
2022/06/05 04:28:12;;;;;;;21.40;17.10;;;;;;;17.38;81.53;99006.06;1760314;80;25728;-58
2022/06/05 04:30:40;;;;;;;20.30;16.65;;;;;;;17.43;80.72;99005.02;1760214;80;27443;-58
2022/06/05 04:33:07;;;;;;;20.65;16.48;;;;;;;17.46;80.56;99004.31;1760505;80;25626;-58
2022/06/05 04:35:34;;;;;;;21.27;17.70;;;;;;;17.51;80.26;99003.26;1760558;80;25696;-58
2022/06/05 04:38:00;;;;;;;19.17;15.98;;;;;;;17.50;80.50;99001.66;1760432;80;25730;-59
2022/06/05 04:40:26;;;;;;;18.52;16.52;;;;;;;17.55;80.58;99001.39;1760792;80;25632;-58
2022/06/05 04:42:53;;;;;;;18.60;15.80;;;;;;;17.72;80.44;98999.46;1760478;80;28158;-58
2022/06/05 04:45:20;;;;;;;18.82;15.98;;;;;;;17.84;78.14;98998.62;1760345;80;26024;-58
2022/06/05 04:47:46;;;;;;;16.75;14.73;;;;;;;17.80;79.05;99002.67;1760506;80;25527;-58
2022/06/05 04:50:12;;;;;;;18.73;16.42;;;;;;;17.78;77.45;99000.82;1760564;80;25758;-58
2022/06/05 04:52:39;;;;;;;18.35;16.05;;;;;;;17.68;77.83;99001.55;1784127;80;25646;-58
2022/06/05 04:55:07;;;;;;;17.98;15.88;;;;;;;17.74;77.94;99001.31;1788713;79;28201;-59
2022/06/05 04:57:36;;;;;;;18.62;15.98;;;;;;;17.79;78.20;98999.69;1784982;80;25845;-58
2022/06/05 05:00:06;;;;;;;18.87;16.45;;;;;;;17.84;77.80;98993.08;1784027;80;25716;-58
2022/06/05 05:02:32;;;;;;;18.67;15.72;;;;;;;17.87;76.96;99004.24;1780424;79;25645;-58
2022/06/05 05:04:58;;;;;;;19.12;15.25;;;;;;;17.91;76.51;99002.36;1781659;80;25628;-58
2022/06/05 05:07:24;;;;;;;19.17;16.55;;;;;;;17.99;76.43;99004.75;1782869;80;26683;-58
2022/06/05 05:09:50;;;;;;;16.32;14.63;;;;;;;17.94;75.64;98999.48;1782895;79;25778;-59
2022/06/05 05:12:18;;;;;;;18.65;16.23;;;;;;;17.87;75.65;98994.54;1784537;79;25673;-59
2022/06/05 05:14:45;;;;;;;18.85;15.05;;;;;;;17.93;76.47;99000.05;1786014;80;26614;-61
2022/06/05 05:17:11;;;;;;;17.98;15.70;;;;;;;18.06;76.40;99001.38;1787162;79;25597;-60
2022/06/05 05:19:37;;;;;;;18.37;15.60;;;;;;;18.10;75.08;99004.25;1785336;80;26835;-59
2022/06/05 05:22:03;;;;;;;17.52;14.07;;;;;;;18.06;74.46;99003.58;1784891;79;25926;-59
2022/06/05 05:24:29;;;;;;;18.80;15.53;;;;;;;18.05;74.06;99001.94;1803731;79;25655;-61
2022/06/05 05:26:55;;;;;;;18.48;16.48;;;;;;;18.09;74.81;99000.66;1803947;79;25773;-59
2022/06/05 05:29:22;;;;;;;19.27;15.88;;;;;;;18.26;74.58;98997.34;1804686;79;25644;-59
2022/06/05 05:31:49;;;;;;;18.98;16.97;;;;;;;18.45;74.08;98993.83;1804775;79;27380;-58
2022/06/05 05:34:15;;;;;;;18.12;15.98;;;;;;;18.62;74.26;98996.04;1803119;79;25557;-60
2022/06/05 05:36:43;;;;;;;16.90;14.95;;;;;;;18.76;72.83;98992.20;1805723;79;25718;-59
2022/06/05 05:42:09;;;;;;;15.38;13.80;;;;;;;18.94;72.30;98995.37;1802536;79;25731;-59
2022/06/05 05:44:51;;;;;;;15.32;13.62;;;;;;;18.97;71.34;98992.45;1806577;79;27408;-58
2022/06/05 05:47:29;;;;;;;17.65;14.35;;;;;;;18.96;70.38;98988.07;1807717;79;25608;-58
2022/06/05 05:50:15;;;;;;;18.50;14.75;;;;;;;18.98;70.65;98984.36;1807691;79;26370;-58
2022/06/05 05:52:45;;;;;;;18.55;14.45;;;;;;;19.14;71.25;98987.70;1802162;79;25722;-58
2022/06/05 05:55:17;;;;;;;16.02;13.85;;;;;;;19.27;69.45;98978.63;1794444;80;25418;-57
2022/06/05 05:57:44;;;;;;;17.48;14.68;;;;;;;19.34;69.58;98978.77;1792746;80;28627;-58
2022/06/05 06:00:13;;;;;;;17.17;13.38;;;;;;;19.48;69.86;98976.88;1794336;80;26113;-58
2022/06/05 06:02:40;;;;;;;16.13;13.67;;;;;;;19.61;68.68;98972.55;1794734;80;25597;-58
2022/06/05 06:05:11;;;;;;;17.67;15.35;;;;;;;19.70;68.82;98978.69;1794335;80;25727;-58
2022/06/05 06:07:38;;;;;;;16.40;13.80;;;;;;;19.93;69.75;98971.78;1794479;80;25462;-58
2022/06/05 06:10:07;;;;;;;15.40;13.70;;;;;;;20.10;68.06;98974.45;1794507;80;27366;-58
2022/06/05 06:12:35;;;;;;;14.40;12.90;;;;;;;20.25;67.46;98973.53;1794378;80;25563;-58
2022/06/05 06:15:02;;;;;;;14.40;12.90;;;;;;;20.26;67.16;98967.39;1794307;80;25658;-58
2022/06/05 06:17:28;;;;;;;17.85;15.98;;;;;;;20.25;66.11;98979.09;1794413;80;25755;-59
2022/06/05 06:19:55;;;;;;;19.73;15.00;;;;;;;20.29;66.79;98972.19;1794275;80;25475;-59
2022/06/05 06:22:21;;;;;;;16.27;13.32;;;;;;;20.51;67.22;98968.36;1794626;80;27531;-58
2022/06/05 06:24:48;;;;;;;14.23;12.65;;;;;;;20.79;66.50;98969.98;1785626;80;25502;-58
2022/06/05 06:27:15;;;;;;;16.05;12.80;;;;;;;20.95;64.17;98969.82;1785818;80;25463;-58
2022/06/05 06:29:41;;;;;;;16.87;14.20;;;;;;;20.92;64.33;98971.39;1786166;80;25843;-58
2022/06/05 06:32:07;;;;;;;16.93;13.70;;;;;;;20.96;64.62;98968.66;1786231;80;25768;-63
2022/06/05 06:34:34;;;;;;;17.10;14.28;;;;;;;21.14;64.57;98966.11;1785768;80;27416;-59
2022/06/05 06:37:01;;;;;;;15.28;13.38;;;;;;;21.38;64.89;98970.16;1785683;80;25617;-59
2022/06/05 06:39:28;;;;;;;15.10;12.95;;;;;;;21.60;64.68;98971.81;1786151;80;25557;-59
2022/06/05 06:41:55;;;;;;;14.35;12.85;;;;;;;21.80;63.45;98965.48;1785960;80;25789;-59
2022/06/05 06:44:22;;;;;;;14.87;12.73;;;;;;;21.92;63.98;98966.61;1785807;80;25402;-61
2022/06/05 06:46:47;;;;;;;14.25;12.75;;;;;;;22.18;62.11;98962.64;1786243;80;27580;-59
2022/06/05 06:49:15;;;;;;;18.20;13.83;;;;;;;22.12;61.58;98965.58;1786118;80;25759;-59
2022/06/05 06:51:41;;;;;;;14.20;12.68;;;;;;;22.13;62.25;98964.41;1785870;80;25620;-60
2022/06/05 06:54:08;;;;;;;15.13;13.53;;;;;;;22.24;61.12;98960.30;1786092;80;25697;-60
2022/06/05 06:56:36;;;;;;;14.63;13.13;;;;;;;22.34;61.17;98965.77;1786292;80;25655;-62
2022/06/05 06:59:05;;;;;;;14.95;13.13;;;;;;;22.52;60.75;98962.53;1786141;80;27610;-62
2022/06/05 07:01:31;;;;;;;15.23;13.38;;;;;;;22.61;60.29;98966.41;1786164;80;25993;-60
2022/06/05 07:04:00;;;;;;;14.05;12.55;;;;;;;22.74;60.13;98964.08;1786130;80;25605;-60
2022/06/05 07:06:27;;;;;;;14.18;12.73;;;;;;;22.97;59.85;98965.02;1785773;80;25765;-58
2022/06/05 07:08:53;;;;;;;13.78;11.88;;;;;;;23.09;59.45;98959.69;1785940;80;25619;-58
2022/06/05 07:11:20;;;;;;;17.57;15.75;;;;;;;23.15;58.60;98964.52;1786138;80;28424;-59
2022/06/05 07:13:47;;;;;;;17.02;12.78;;;;;;;23.33;58.35;98962.97;1785965;80;25657;-58
2022/06/05 07:16:15;;;;;;;14.98;13.43;;;;;;;23.48;58.50;98963.84;1786216;80;25413;-58
2022/06/05 07:18:42;;;;;;;14.70;13.20;;;;;;;23.62;59.38;98962.52;1786070;80;25691;-58
2022/06/05 07:21:16;;;;;;;17.25;13.60;;;;;;;23.64;58.05;98964.33;1785735;80;25421;-58
2022/06/05 07:23:42;;;;;;;14.00;12.60;;;;;;;23.96;57.60;98968.96;1785848;79;27414;-58
2022/06/05 07:26:11;;;;;;;13.75;12.10;;;;;;;24.19;57.62;98963.02;1786235;80;25672;-58
2022/06/05 07:28:39;;;;;;;12.65;11.45;;;;;;;24.39;56.27;98976.03;1786300;80;25593;-58
2022/06/05 07:31:07;;;;;;;14.60;12.90;;;;;;;24.61;55.48;98968.98;1786394;80;25737;-58
2022/06/05 07:33:35;;;;;;;13.83;12.10;;;;;;;24.82;55.36;98971.57;1786423;80;25416;-60
2022/06/05 07:36:06;;;;;;;11.97;10.78;;;;;;;25.08;55.86;98971.52;1786222;80;28168;-58
2022/06/05 07:38:35;;;;;;;14.83;13.30;;;;;;;25.26;52.76;98975.07;1786345;80;25813;-60
2022/06/05 07:41:04;;;;;;;13.70;12.35;;;;;;;25.34;53.79;98980.05;1786623;80;25653;-57
2022/06/05 07:43:30;;;;;;;13.93;12.58;;;;;;;25.30;52.45;98976.47;1786379;80;26259;-58
2022/06/05 07:46:00;;;;;;;13.10;11.78;;;;;;;25.49;54.10;98977.16;1786021;80;25616;-58
2022/06/05 07:48:26;;;;;;;13.77;12.37;;;;;;;25.65;53.50;98971.89;1782258;80;27528;-59
2022/06/05 07:56:42;;;;;;;12.35;11.05;;;;;;;26.14;50.71;98977.41;1785950;80;25432;-58
2022/06/05 07:59:09;;;;;;;12.82;11.63;;;;;;;26.17;51.83;98977.99;1786205;80;26001;-57
2022/06/05 08:01:36;;;;;;;13.60;11.57;;;;;;;26.52;49.90;98977.53;1785968;80;29416;-58
2022/06/05 08:04:04;;;;;;;13.03;11.60;;;;;;;26.68;51.12;98975.56;1785865;80;26072;-61
2022/06/05 08:06:34;;;;;;;13.70;12.30;;;;;;;27.09;49.79;98968.14;1786272;80;25637;-57
2022/06/05 08:09:03;;;;;;;11.73;10.60;;;;;;;27.38;50.25;98965.78;1786222;80;25581;-59
2022/06/05 08:11:29;;;;;;;10.82;9.73;;;;;;;27.55;47.47;98968.78;1785655;80;25672;-58
2022/06/05 08:13:56;;;;;;;11.40;10.30;;;;;;;27.53;47.28;98965.58;1759752;80;27455;-59
2022/06/05 08:16:22;;;;;;;10.50;9.30;;;;;;;27.39;47.53;98963.75;1785871;80;25490;-57
2022/06/05 08:18:51;;;;;;;9.78;8.78;;;;;;;27.42;46.27;98958.68;1786171;80;25419;-59
2022/06/05 08:21:21;;;;;;;10.18;9.25;;;;;;;27.50;45.12;98958.78;1785879;80;25436;-58
2022/06/05 08:23:47;;;;;;;;;;;;;;;27.73;45.24;98950.25;1788755;79;25447;-59
2022/06/05 08:26:14;;;;;;;10.90;9.78;;;;;;;28.10;45.92;98953.92;1786121;80;27395;-60
2022/06/05 08:28:41;;;;;;;13.20;11.57;;;;;;;28.04;44.72;98955.02;1785700;80;25416;-60
2022/06/05 08:31:09;;;;;;;15.63;12.68;;;;;;;28.28;44.59;98950.80;1786117;80;25466;-59
2022/06/05 08:33:36;;;;;;;17.95;12.82;;;;;;;28.61;45.40;98946.05;1785833;80;25584;-58
2022/06/05 08:36:02;;;;;;;12.47;11.15;;;;;;;28.77;42.95;98946.14;1785688;80;25561;-58
2022/06/05 08:41:42;;;;;;;11.08;9.60;;;;;;;28.72;42.29;98948.67;1785657;80;25558;-58
2022/06/05 08:44:26;;;;;;;9.80;8.80;;;;;;;28.92;42.45;98943.02;1785974;80;25704;-58
2022/06/05 08:47:12;;;;;;;8.33;7.58;;;;;;;29.16;42.55;98939.55;1785671;80;26826;-58
2022/06/05 08:49:50;;;;;;;9.03;8.13;;;;;;;29.27;42.01;98943.55;1782817;80;25684;-58
2022/06/05 08:52:34;;;;;;;7.83;7.10;;;;;;;29.50;39.78;98948.91;1785582;79;27500;-58
2022/06/05 08:55:12;;;;;;;8.50;7.80;;;;;;;29.18;39.34;98946.97;1784560;80;25420;-58
2022/06/05 08:57:58;;;;;;;9.65;7.62;;;;;;;29.34;39.41;98949.67;1785674;80;25582;-58
2022/06/05 09:00:36;;;;;;;9.48;7.85;;;;;;;29.59;39.69;98947.56;1785625;79;27747;-56
2022/06/05 09:03:10;;;;;;;8.55;7.70;;;;;;;29.68;39.44;98949.17;1786304;80;25569;-59
2022/06/05 09:05:44;;;;;;;8.65;7.85;;;;;;;29.73;38.42;98952.09;1786179;80;27245;-60
2022/06/05 09:08:24;;;;;;;8.43;7.50;;;;;;;29.24;39.48;98952.11;1786171;80;25443;-59
2022/06/05 09:10:57;;;;;;;7.95;7.12;;;;;;;29.25;39.62;98951.68;1786224;80;25697;-60
2022/06/05 09:13:44;;;;;;;7.30;6.60;;;;;;;29.42;38.56;98944.03;1786033;80;25912;-57
2022/06/05 09:16:19;;;;;;;6.47;5.22;;;;;;;29.59;38.31;98936.27;1786354;80;25608;-59
2022/06/05 09:18:48;;;;;;;4.37;4.08;;;;;;;29.59;33.57;98948.97;1784066;80;28383;-58
2022/06/05 09:21:37;;;;;;;4.72;4.33;;;;;;;29.31;33.82;98946.31;1786162;80;25479;-58
2022/06/05 09:24:14;;;;;;;5.37;4.92;;;;;;;29.20;33.24;98944.31;1785925;80;25432;-58
2022/06/05 09:26:57;;;;;;;7.37;6.78;;;;;;;28.64;36.29;98945.96;1786075;80;25783;-58
2022/06/05 09:29:43;;;;;;;8.83;8.10;;;;;;;28.45;37.78;98946.72;1786215;80;25565;-58
2022/06/05 09:32:27;;;;;;;7.97;7.28;;;;;;;27.88;38.80;98951.44;1785365;80;26923;-58
2022/06/05 09:34:59;;;;;;;9.30;7.50;;;;;;;27.50;40.14;98953.76;1785768;80;25870;-60
2022/06/05 09:37:56;;;;;;;8.20;7.40;;;;;;;27.72;42.12;98953.49;1786083;80;25613;-60
2022/06/05 09:40:35;;;;;;;6.03;5.45;;;;;;;27.93;40.09;98955.19;1785822;80;25789;-60
2022/06/05 09:43:45;;;;;;;9.15;6.45;;;;;;;28.47;36.06;98945.08;1781507;80;25696;-60
2022/06/05 09:46:17;;;;;;;5.60;5.10;;;;;;;28.99;37.42;98941.52;1721839;83;27657;-59
2022/06/05 09:49:04;;;;;;;6.70;5.25;;;;;;;29.72;35.66;98934.95;1719855;83;26113;-59
2022/06/05 09:51:31;;;;;;;5.70;5.20;;;;;;;30.18;35.08;98942.96;1721643;83;25674;-59
2022/06/05 09:54:08;;;;;;;5.90;5.45;;;;;;;29.80;33.07;98944.25;1721408;83;25730;-62
2022/06/05 10:00:00;;;;;;;5.20;4.80;;;;;;;29.26;34.79;98944.80;1721357;83;27388;-58
2022/06/05 10:02:28;;;;;;;5.03;4.55;;;;;;;29.40;33.02;98949.95;1721274;83;25685;-58
2022/06/05 10:04:55;;;;;;;4.90;4.50;;;;;;;29.41;33.16;98943.06;1721582;83;25804;-58
2022/06/05 10:07:39;;;;;;;3.95;3.65;;;;;;;29.53;32.59;98934.55;1721503;83;25825;-58
2022/06/05 10:10:10;;;;;;;4.67;4.28;;;;;;;29.46;31.18;98930.45;1720759;83;25741;-58
2022/06/05 10:12:42;;;;;;;5.17;4.15;;;;;;;29.12;31.32;98933.19;1720069;83;27614;-59
2022/06/05 10:15:31;;;;;;;4.47;4.08;;;;;;;29.53;31.86;98933.14;1721370;83;25804;-58
2022/06/05 10:18:06;;;;;;;5.80;4.65;;;;;;;29.62;32.16;98931.16;1721526;83;26667;-59
2022/06/05 10:20:50;;;;;;;4.90;4.42;;;;;;;29.77;32.05;98924.55;1721202;83;26003;-59
2022/06/05 10:23:46;;;;;;;4.92;4.42;;;;;;;30.14;31.33;98923.84;1786376;80;25428;-58
2022/06/05 10:26:38;;;;;;;4.92;4.33;;;;;;;30.18;31.23;98911.07;1786204;80;27638;-63
2022/06/05 10:29:21;;;;;;;4.65;4.25;;;;;;;30.57;30.53;98915.52;1783869;80;25632;-58
2022/06/05 10:32:16;;;;;;;4.50;4.10;;;;;;;29.64;30.34;98910.31;1785733;80;25601;-59
2022/06/05 10:35:16;;;;;;;4.45;4.05;;;;;;;28.81;30.53;98899.52;1785334;80;25690;-61
2022/06/05 10:37:51;;;;;;;4.97;4.58;;;;;;;28.68;31.17;98892.34;1786118;80;25566;-60
2022/06/05 10:40:35;;;;;;;5.15;4.60;;;;;;;29.13;31.44;98890.27;1786194;80;27652;-62
2022/06/05 10:43:16;;;;;;;5.22;4.83;;;;;;;29.75;31.19;98889.69;1784843;80;25429;-58
2022/06/05 10:45:53;;;;;;;5.28;4.78;;;;;;;29.64;30.95;98890.55;1777749;80;25486;-58
2022/06/05 10:48:47;;;;;;;4.62;4.10;;;;;;;29.22;31.24;98896.72;1786084;80;26588;-58
2022/06/05 10:51:49;;;;;;;4.62;4.22;;;;;;;29.04;31.31;98898.69;1757556;80;25732;-58
2022/06/05 10:54:38;;;;;;;4.58;4.17;;;;;;;29.43;30.13;98902.50;1786007;80;27597;-59
2022/06/05 10:57:15;;;;;;;3.87;3.58;;;;;;;29.41;30.91;98893.66;1785794;80;25572;-58
2022/06/05 10:59:50;;;;;;;3.98;3.67;;;;;;;29.92;29.93;98894.73;1772359;80;25780;-58
2022/06/05 11:02:57;;;;;;;5.22;4.70;;;;;;;30.36;30.67;98894.28;1786022;80;26485;-58
2022/06/05 11:05:41;;;;;;;5.30;4.80;;;;;;;30.73;30.20;98894.06;1762658;80;25440;-59
2022/06/05 11:08:35;;;;;;;5.25;4.85;;;;;;;30.98;30.66;98899.67;1785387;80;27720;-64
2022/06/05 11:14:24;;;;;;;4.70;4.22;;;;;;;31.19;29.01;98896.82;1785782;80;25647;-60
2022/06/05 11:17:25;;;;;;;4.75;4.28;;;;;;;31.18;27.95;98886.75;1785589;80;25729;-60
2022/06/05 11:20:19;;;;;;;5.75;4.97;;;;;;;31.09;28.61;98878.94;1785773;80;25580;-61
2022/06/05 11:23:02;;;;;;;4.90;4.50;;;;;;;30.87;29.53;98877.34;1786152;80;28144;-58
2022/06/05 11:25:59;;;;;;;5.85;5.33;;;;;;;30.73;28.67;98880.73;1785707;79;25427;-58
2022/06/05 11:28:46;;;;;;;4.72;4.33;;;;;;;30.79;29.63;98873.92;1786053;80;25481;-58
2022/06/05 11:31:42;;;;;;;5.08;4.40;;;;;;;30.83;29.22;98871.80;1785620;80;26960;-59
2022/06/05 11:34:41;;;;;;;4.80;4.30;;;;;;;30.76;28.29;98872.77;1786108;80;25411;-58
2022/06/05 11:37:37;;;;;;;4.55;4.05;;;;;;;30.92;28.82;98862.66;1786167;80;32989;-58
2022/06/05 11:40:28;;;;;;;5.30;4.80;;;;;;;31.48;28.32;98866.23;1785579;80;25669;-58
2022/06/05 11:43:29;;;;;;;4.40;4.00;;;;;;;31.70;29.17;98869.00;1786399;80;25537;-58
2022/06/05 11:46:30;;;;;;;4.92;4.42;;;;;;;31.59;27.34;98877.84;1786395;80;25690;-58
2022/06/05 11:49:23;;;;;;;3.90;3.60;;;;;;;31.03;27.65;98863.75;1786261;80;25632;-61
2022/06/05 11:52:15;;;;;;;4.40;4.00;;;;;;;30.84;28.68;98866.31;1749452;80;27822;-58
2022/06/05 11:55:05;;;;;;;4.50;4.10;;;;;;;30.84;28.10;98855.61;1785089;80;25597;-59
2022/06/05 11:57:39;;;;;;;4.67;4.20;;;;;;;30.72;28.10;98852.28;1786260;80;25577;-59
2022/06/05 12:00:20;;;;;;;4.60;4.10;;;;;;;30.85;28.25;98845.90;1786277;80;25683;-59
2022/06/05 12:03:07;;;;;;;4.78;4.37;;;;;;;30.86;29.10;98841.20;1786518;80;25663;-60
2022/06/05 12:05:58;;;;;;;4.20;3.83;;;;;;;30.92;28.18;98836.58;1786002;80;27481;-58
2022/06/05 12:08:36;;;;;;;5.62;4.33;;;;;;;31.26;28.26;98841.39;1786139;80;25565;-59
2022/06/05 12:11:11;;;;;;;4.87;4.35;;;;;;;31.88;28.01;98832.98;1786506;80;25585;-58
2022/06/05 12:13:45;;;;;;;4.53;4.00;;;;;;;31.32;28.36;98833.16;1786238;80;25743;-58
2022/06/05 12:16:33;;;;;;;4.10;3.80;;;;;;;30.88;29.17;98828.80;1786601;80;25393;-57
2022/06/05 12:19:10;;;;;;;4.20;3.90;;;;;;;31.39;29.15;98824.45;1769047;80;27495;-57
2022/06/05 12:22:03;;;;;;;4.20;3.60;;;;;;;31.08;28.85;98830.63;1786146;80;25796;-59